Time;durP1;ratioP1;P1;durP2;ratioP2;P2;SDS_P1;SDS_P2;PMS_P1;PMS_P2;Temp;Humidity;BMP_temperature;BMP_pressure;BME280_temperature;BME280_humidity;BME280_pressure;Samples;Min_cycle;Max_cycle;Signal;HPM_P1;HPM_P2
2022/08/05 00:01:02;;;;;;;8.43;4.03;;;;;;;;;;5087527;28;20127;-78
2022/08/05 00:03:30;;;;;;;9.93;4.38;;;;;;;;;;5104983;28;20043;-79
2022/08/05 00:05:56;;;;;;;10.77;4.43;;;;;;;;;;5070359;28;20656;-79
2022/08/05 00:08:22;;;;;;;11.98;4.70;;;;;;;;;;5088319;28;20532;-78
2022/08/05 00:10:49;;;;;;;17.80;4.82;;;;;;;;;;5104867;28;20104;-78
2022/08/05 00:13:15;;;;;;;6.97;4.05;;;;;;;;;;5105191;28;20036;-79
2022/08/05 00:15:42;;;;;;;7.18;3.50;;;;;;;;;;5101292;28;20044;-78
2022/08/05 00:18:08;;;;;;;6.45;3.72;;;;;;;;;;5105005;28;20040;-78
2022/08/05 00:20:35;;;;;;;7.25;4.03;;;;;;;;;;5086544;28;20112;-78
2022/08/05 00:23:02;;;;;;;6.70;3.90;;;;;;;;;;5078941;28;20044;-78
2022/08/05 00:25:28;;;;;;;9.07;4.15;;;;;;;;;;5088970;28;20115;-78
2022/08/05 00:27:54;;;;;;;7.80;3.92;;;;;;;;;;5105275;28;20044;-78
2022/08/05 00:30:20;;;;;;;7.68;4.65;;;;;;;;;;5065093;28;20036;-78
2022/08/05 00:32:48;;;;;;;6.72;4.18;;;;;;;;;;5104771;28;20270;-78
2022/08/05 00:35:14;;;;;;;6.85;4.10;;;;;;;;;;5052734;28;20066;-78
2022/08/05 00:37:40;;;;;;;10.43;3.97;;;;;;;;;;5090080;28;20101;-78
2022/08/05 00:40:07;;;;;;;4.88;3.58;;;;;;;;;;5073547;28;20550;-78
2022/08/05 00:42:34;;;;;;;6.60;3.90;;;;;;;;;;5074065;28;20097;-78
2022/08/05 00:45:02;;;;;;;6.10;3.85;;;;;;;;;;5074512;28;20040;-79
2022/08/05 00:47:28;;;;;;;7.28;4.05;;;;;;;;;;5091352;28;20087;-78
2022/08/05 00:49:56;;;;;;;7.65;3.92;;;;;;;;;;5090411;28;20047;-79
2022/08/05 00:52:22;;;;;;;6.43;3.50;;;;;;;;;;5092534;28;20039;-79
2022/08/05 00:54:48;;;;;;;4.35;3.92;;;;;;;;;;5108345;28;20052;-79
2022/08/05 00:57:15;;;;;;;10.52;4.82;;;;;;;;;;5074277;28;20083;-78
2022/08/05 00:59:41;;;;;;;5.93;4.10;;;;;;;;;;5102813;28;20127;-79
2022/08/05 01:02:07;;;;;;;7.22;4.18;;;;;;;;;;5105253;28;20075;-79
2022/08/05 01:04:34;;;;;;;8.35;4.32;;;;;;;;;;5108511;28;20119;-79
2022/08/05 01:07:01;;;;;;;4.95;3.88;;;;;;;;;;5106806;28;20047;-79
2022/08/05 01:09:27;;;;;;;5.05;4.10;;;;;;;;;;5099289;28;20097;-78
2022/08/05 01:11:55;;;;;;;9.75;3.72;;;;;;;;;;5074078;28;20086;-79
2022/08/05 01:14:24;;;;;;;8.25;4.00;;;;;;;;;;5105349;28;20064;-79
2022/08/05 01:16:53;;;;;;;3.88;3.42;;;;;;;;;;5097672;28;20040;-79
2022/08/05 01:19:23;;;;;;;6.63;3.60;;;;;;;;;;5108130;28;20127;-79
2022/08/05 01:21:58;;;;;;;5.00;3.78;;;;;;;;;;5089662;28;20482;-79
2022/08/05 01:24:51;;;;;;;5.78;3.95;;;;;;;;;;5106891;28;20509;-79
2022/08/05 01:27:28;;;;;;;8.73;4.03;;;;;;;;;;5098883;28;20502;-79
2022/08/05 01:29:57;;;;;;;6.40;3.88;;;;;;;;;;5073049;28;20036;-79
2022/08/05 01:32:25;;;;;;;6.25;4.10;;;;;;;;;;5084911;28;20051;-79
2022/08/05 01:34:54;;;;;;;7.05;4.60;;;;;;;;;;5091455;28;20424;-79
2022/08/05 01:37:40;;;;;;;6.85;4.00;;;;;;;;;;5104435;28;20424;-79
2022/08/05 01:40:08;;;;;;;6.65;4.15;;;;;;;;;;5069463;28;20055;-79
2022/08/05 01:42:35;;;;;;;5.43;4.03;;;;;;;;;;5107620;28;20123;-79
2022/08/05 01:45:03;;;;;;;6.20;4.40;;;;;;;;;;5089928;28;20385;-79
2022/08/05 01:47:31;;;;;;;4.47;3.70;;;;;;;;;;5089523;28;20044;-79
2022/08/05 01:49:57;;;;;;;5.50;4.00;;;;;;;;;;5089247;28;20035;-79
2022/08/05 01:52:24;;;;;;;7.78;3.88;;;;;;;;;;5090377;28;20048;-79
2022/08/05 01:54:53;;;;;;;6.28;4.28;;;;;;;;;;5090181;28;20131;-79
2022/08/05 01:57:24;;;;;;;8.45;4.45;;;;;;;;;;5107159;28;20071;-79
2022/08/05 01:59:54;;;;;;;5.32;3.97;;;;;;;;;;5085959;28;20054;-79
2022/08/05 02:02:21;;;;;;;6.30;4.68;;;;;;;;;;5099716;28;20040;-79
2022/08/05 02:04:48;;;;;;;5.88;3.70;;;;;;;;;;5087627;28;20040;-79
2022/08/05 02:07:14;;;;;;;5.63;3.90;;;;;;;;;;5089555;28;20382;-79
2022/08/05 02:09:40;;;;;;;4.93;3.72;;;;;;;;;;5107477;28;20181;-79
2022/08/05 02:12:18;;;;;;;8.73;4.63;;;;;;;;;;5106621;28;20044;-79
2022/08/05 02:14:48;;;;;;;6.85;4.10;;;;;;;;;;5090130;28;20101;-79
2022/08/05 02:17:19;;;;;;;13.70;4.13;;;;;;;;;;5103622;28;20498;-79
2022/08/05 02:19:50;;;;;;;6.18;3.83;;;;;;;;;;5089170;28;20096;-80
2022/08/05 02:22:26;;;;;;;4.53;3.40;;;;;;;;;;5067865;28;20243;-79
2022/08/05 02:24:53;;;;;;;4.53;3.88;;;;;;;;;;5069232;28;20433;-79
2022/08/05 02:27:21;;;;;;;5.70;4.15;;;;;;;;;;5087515;28;20089;-79
2022/08/05 02:29:48;;;;;;;5.72;4.13;;;;;;;;;;5100626;28;20071;-79
2022/08/05 02:32:16;;;;;;;9.35;4.85;;;;;;;;;;5069331;28;20382;-79
2022/08/05 02:34:43;;;;;;;6.03;3.90;;;;;;;;;;5086784;28;20051;-80
2022/08/05 02:37:09;;;;;;;5.80;4.65;;;;;;;;;;5088596;28;20044;-79
2022/08/05 02:39:37;;;;;;;5.45;3.42;;;;;;;;;;5084988;28;20045;-79
2022/08/05 02:42:04;;;;;;;8.27;3.83;;;;;;;;;;5105437;28;20059;-80
2022/08/05 02:44:32;;;;;;;8.20;4.00;;;;;;;;;;5089406;28;20481;-79
2022/08/05 02:46:59;;;;;;;6.50;3.60;;;;;;;;;;5088182;28;20040;-79
2022/08/05 02:49:25;;;;;;;7.18;3.50;;;;;;;;;;5089605;28;20040;-79
2022/08/05 02:51:52;;;;;;;6.55;3.33;;;;;;;;;;5095209;28;20059;-78
2022/08/05 02:54:19;;;;;;;5.43;3.38;;;;;;;;;;5106214;28;20067;-79
2022/08/05 02:56:46;;;;;;;5.00;3.50;;;;;;;;;;5105945;28;20529;-79
2022/08/05 02:59:12;;;;;;;6.28;3.42;;;;;;;;;;5106570;28;20047;-79
2022/08/05 03:01:40;;;;;;;5.28;4.00;;;;;;;;;;5104317;28;20040;-79
2022/08/05 03:04:07;;;;;;;8.02;3.83;;;;;;;;;;5089195;28;20126;-80
2022/08/05 03:06:33;;;;;;;7.63;3.75;;;;;;;;;;5067209;28;20389;-80
2022/08/05 03:09:00;;;;;;;5.38;3.83;;;;;;;;;;5084141;28;20113;-79
2022/08/05 03:11:26;;;;;;;4.70;3.72;;;;;;;;;;5066642;28;20040;-80
2022/08/05 03:13:53;;;;;;;7.28;4.07;;;;;;;;;;5088825;28;20059;-80
2022/08/05 03:16:20;;;;;;;4.40;3.83;;;;;;;;;;5089734;28;20032;-79
2022/08/05 03:18:47;;;;;;;4.60;3.47;;;;;;;;;;5052393;28;20036;-79
2022/08/05 03:21:13;;;;;;;5.22;3.80;;;;;;;;;;5087808;28;20448;-79
2022/08/05 03:23:42;;;;;;;9.25;4.20;;;;;;;;;;5105597;28;20115;-80
2022/08/05 03:26:08;;;;;;;7.13;4.15;;;;;;;;;;5105411;28;20040;-79
2022/08/05 03:28:34;;;;;;;8.55;4.05;;;;;;;;;;5105525;28;20042;-79
2022/08/05 03:31:01;;;;;;;5.28;3.65;;;;;;;;;;5089920;28;20036;-79
2022/08/05 03:33:28;;;;;;;5.40;3.70;;;;;;;;;;5097629;28;20070;-79
2022/08/05 03:35:58;;;;;;;6.07;4.18;;;;;;;;;;5064261;28;20036;-79
2022/08/05 03:38:24;;;;;;;5.78;3.40;;;;;;;;;;5105334;28;20036;-79
2022/08/05 03:40:54;;;;;;;8.13;4.10;;;;;;;;;;5088498;28;20393;-79
2022/08/05 03:43:23;;;;;;;6.50;3.45;;;;;;;;;;5105576;28;20128;-79
2022/08/05 03:45:50;;;;;;;5.75;3.53;;;;;;;;;;5089490;28;20101;-79
2022/08/05 03:48:17;;;;;;;4.95;3.72;;;;;;;;;;5096151;28;20070;-79
2022/08/05 03:50:58;;;;;;;6.07;4.03;;;;;;;;;;5070530;28;20505;-78
2022/08/05 03:53:33;;;;;;;7.07;4.28;;;;;;;;;;5087887;28;20093;-79
2022/08/05 03:56:03;;;;;;;5.85;4.05;;;;;;;;;;5071201;28;20055;-78
2022/08/05 03:58:30;;;;;;;5.05;4.22;;;;;;;;;;5083936;28;20037;-78
2022/08/05 04:00:58;;;;;;;7.60;3.83;;;;;;;;;;5105076;28;20040;-79
2022/08/05 04:03:25;;;;;;;6.68;4.20;;;;;;;;;;5105554;28;20072;-78
2022/08/05 04:05:51;;;;;;;4.68;3.50;;;;;;;;;;5053054;28;20036;-78
2022/08/05 04:08:17;;;;;;;4.38;3.78;;;;;;;;;;5083172;28;20382;-79
2022/08/05 04:10:44;;;;;;;4.88;4.15;;;;;;;;;;5095310;28;20584;-79
2022/08/05 04:13:11;;;;;;;5.68;4.60;;;;;;;;;;5108959;28;20119;-79
2022/08/05 04:15:37;;;;;;;5.32;3.35;;;;;;;;;;5073565;28;20113;-79
2022/08/05 04:18:04;;;;;;;9.45;4.75;;;;;;;;;;5085023;28;20044;-79
2022/08/05 04:20:30;;;;;;;5.20;4.60;;;;;;;;;;5086985;28;20042;-79
2022/08/05 04:22:56;;;;;;;5.38;3.67;;;;;;;;;;5073662;28;20490;-79
2022/08/05 04:25:23;;;;;;;3.83;3.03;;;;;;;;;;5091480;28;20048;-79
2022/08/05 04:27:49;;;;;;;5.13;3.67;;;;;;;;;;5105731;28;20043;-78
2022/08/05 04:30:16;;;;;;;5.07;3.20;;;;;;;;;;5073017;28;20040;-79
2022/08/05 04:32:42;;;;;;;5.72;3.35;;;;;;;;;;5091471;28;20434;-79
2022/08/05 04:35:08;;;;;;;3.55;2.83;;;;;;;;;;5092765;28;20072;-78
2022/08/05 04:37:34;;;;;;;4.90;3.47;;;;;;;;;;5092795;28;20051;-78
2022/08/05 04:40:00;;;;;;;5.13;3.22;;;;;;;;;;5073978;28;20561;-79
2022/08/05 04:42:26;;;;;;;4.85;3.88;;;;;;;;;;5072989;28;20131;-78
2022/08/05 04:44:52;;;;;;;4.28;3.28;;;;;;;;;;5109935;28;20066;-79
2022/08/05 04:47:18;;;;;;;6.05;4.10;;;;;;;;;;5093992;28;20040;-79
2022/08/05 04:49:45;;;;;;;5.05;3.90;;;;;;;;;;5094020;28;20048;-79
2022/08/05 04:52:11;;;;;;;5.45;4.13;;;;;;;;;;5093429;28;20093;-78
2022/08/05 04:54:37;;;;;;;4.32;3.35;;;;;;;;;;5095779;28;20051;-78
2022/08/05 04:57:03;;;;;;;6.20;3.65;;;;;;;;;;5110957;28;20182;-78
2022/08/05 04:59:30;;;;;;;6.18;4.25;;;;;;;;;;5094586;28;20051;-79
2022/08/05 05:01:57;;;;;;;7.30;5.45;;;;;;;;;;5076909;28;20410;-79
2022/08/05 05:04:23;;;;;;;6.93;3.47;;;;;;;;;;5111576;28;20050;-79
2022/08/05 05:06:49;;;;;;;6.40;4.15;;;;;;;;;;5109938;28;20039;-79
2022/08/05 05:09:16;;;;;;;4.38;3.90;;;;;;;;;;5082517;28;20620;-79
2022/08/05 05:11:42;;;;;;;4.95;4.15;;;;;;;;;;5107608;28;20462;-79
2022/08/05 05:14:08;;;;;;;10.20;4.28;;;;;;;;;;5111044;28;20306;-79
2022/08/05 05:16:34;;;;;;;4.88;4.03;;;;;;;;;;5104344;28;20038;-79
2022/08/05 05:19:00;;;;;;;5.47;4.13;;;;;;;;;;5094170;28;20118;-78
2022/08/05 05:21:26;;;;;;;5.55;4.63;;;;;;;;;;5107368;28;20102;-79
2022/08/05 05:23:52;;;;;;;4.70;4.00;;;;;;;;;;5065740;28;20036;-79
2022/08/05 05:26:19;;;;;;;5.57;4.10;;;;;;;;;;5108078;28;20044;-78
2022/08/05 05:28:45;;;;;;;4.43;3.45;;;;;;;;;;5103502;28;20040;-79
2022/08/05 05:31:11;;;;;;;6.93;4.40;;;;;;;;;;5091906;28;20348;-79
2022/08/05 05:33:37;;;;;;;8.70;4.85;;;;;;;;;;5084997;28;20485;-79
2022/08/05 05:36:03;;;;;;;5.72;4.93;;;;;;;;;;5084048;28;20345;-79
2022/08/05 05:38:30;;;;;;;6.95;4.65;;;;;;;;;;5086291;28;20111;-78
2022/08/05 05:40:56;;;;;;;6.22;3.72;;;;;;;;;;5087547;28;20044;-79
2022/08/05 05:43:22;;;;;;;5.03;3.97;;;;;;;;;;5095183;28;20084;-79
2022/08/05 05:45:48;;;;;;;4.55;3.35;;;;;;;;;;5067704;28;20036;-78
2022/08/05 05:48:15;;;;;;;6.90;3.95;;;;;;;;;;5093827;28;20044;-79
2022/08/05 05:50:41;;;;;;;4.88;3.67;;;;;;;;;;5068884;28;20036;-78
2022/08/05 05:53:08;;;;;;;6.43;4.30;;;;;;;;;;5084291;28;20039;-79
2022/08/05 05:55:34;;;;;;;7.28;5.00;;;;;;;;;;5069174;28;20059;-78
2022/08/05 05:58:00;;;;;;;11.18;3.72;;;;;;;;;;5070870;28;20517;-78
2022/08/05 06:00:26;;;;;;;4.85;3.72;;;;;;;;;;5081553;28;20122;-78
2022/08/05 06:02:53;;;;;;;6.70;3.15;;;;;;;;;;5086671;28;20055;-78
2022/08/05 06:05:20;;;;;;;6.82;3.75;;;;;;;;;;5086665;28;20044;-79
2022/08/05 06:07:46;;;;;;;6.15;3.47;;;;;;;;;;5056730;28;20075;-79
2022/08/05 06:10:12;;;;;;;4.15;2.80;;;;;;;;;;5067702;28;20135;-79
2022/08/05 06:12:39;;;;;;;4.15;3.20;;;;;;;;;;5081509;28;20405;-79
2022/08/05 06:15:06;;;;;;;7.97;2.90;;;;;;;;;;5087681;28;20044;-79
2022/08/05 06:17:32;;;;;;;4.30;2.78;;;;;;;;;;5084193;28;20040;-78
2022/08/05 06:19:58;;;;;;;2.90;2.20;;;;;;;;;;5056647;28;20049;-79
2022/08/05 06:22:25;;;;;;;4.55;2.67;;;;;;;;;;5081950;28;20048;-79
2022/08/05 06:24:52;;;;;;;2.95;2.03;;;;;;;;;;5081409;28;20040;-79
2022/08/05 06:27:18;;;;;;;3.15;1.85;;;;;;;;;;5089301;28;20074;-79
2022/08/05 06:29:44;;;;;;;2.75;1.90;;;;;;;;;;5077193;28;20422;-78
2022/08/05 06:32:11;;;;;;;4.57;1.58;;;;;;;;;;5065217;28;20123;-79
2022/08/05 06:34:38;;;;;;;2.88;1.90;;;;;;;;;;5083156;28;20048;-78
2022/08/05 06:37:04;;;;;;;3.47;1.40;;;;;;;;;;5066940;28;20075;-78
2022/08/05 06:39:30;;;;;;;4.35;1.70;;;;;;;;;;5085454;28;20278;-78
2022/08/05 06:42:00;;;;;;;2.10;1.20;;;;;;;;;;5096450;28;20102;-78
2022/08/05 06:44:26;;;;;;;3.28;1.50;;;;;;;;;;5080775;28;20481;-78
2022/08/05 06:46:52;;;;;;;2.65;1.30;;;;;;;;;;5077940;28;20032;-78
2022/08/05 06:49:18;;;;;;;5.22;2.50;;;;;;;;;;5082947;28;20683;-79
2022/08/05 06:51:45;;;;;;;2.63;1.58;;;;;;;;;;5081667;28;20040;-78
2022/08/05 06:54:11;;;;;;;2.10;1.00;;;;;;;;;;5096525;28;20043;-78
2022/08/05 06:56:37;;;;;;;1.27;1.05;;;;;;;;;;5085243;28;20399;-79
2022/08/05 06:59:04;;;;;;;3.83;1.40;;;;;;;;;;5077031;28;20413;-78
2022/08/05 07:01:31;;;;;;;2.20;1.20;;;;;;;;;;5082614;28;20090;-78
2022/08/05 07:03:57;;;;;;;5.00;1.65;;;;;;;;;;5065726;28;20040;-78
2022/08/05 07:06:23;;;;;;;2.22;1.23;;;;;;;;;;5081843;28;20051;-78
2022/08/05 07:08:49;;;;;;;4.18;1.60;;;;;;;;;;5082698;28;20059;-78
2022/08/05 07:11:16;;;;;;;6.70;1.60;;;;;;;;;;5084751;28;20524;-77
2022/08/05 07:17:10;;;;;;;4.68;2.10;;;;;;;;;;5084200;28;20048;-78
2022/08/05 07:19:21;;;;;;;4.95;2.08;;;;;;;;;;5076151;28;20094;-78
2022/08/05 07:21:48;;;;;;;2.75;1.40;;;;;;;;;;5097919;28;20052;-77
2022/08/05 07:24:15;;;;;;;2.92;1.30;;;;;;;;;;5063407;28;20481;-78
2022/08/05 07:26:42;;;;;;;2.03;1.05;;;;;;;;;;5086957;28;20093;-78
2022/08/05 07:29:08;;;;;;;2.75;1.17;;;;;;;;;;5081439;28;20078;-77
2022/08/05 07:31:35;;;;;;;4.82;1.60;;;;;;;;;;5097796;28;20074;-78
2022/08/05 07:34:01;;;;;;;3.28;1.10;;;;;;;;;;5066217;28;20044;-78
2022/08/05 07:36:28;;;;;;;1.45;1.10;;;;;;;;;;5065422;28;20044;-78
2022/08/05 07:38:54;;;;;;;1.55;0.98;;;;;;;;;;5083504;28;20040;-77
2022/08/05 07:41:22;;;;;;;1.73;1.02;;;;;;;;;;5081968;28;20079;-78
2022/08/05 07:43:48;;;;;;;2.47;0.90;;;;;;;;;;5079935;28;20040;-78
2022/08/05 07:46:14;;;;;;;1.98;0.82;;;;;;;;;;5082980;28;20225;-78
2022/08/05 07:48:40;;;;;;;1.17;0.88;;;;;;;;;;5083816;28;20130;-77
2022/08/05 07:51:06;;;;;;;1.55;1.27;;;;;;;;;;5082754;28;20036;-77
2022/08/05 07:53:33;;;;;;;3.45;1.40;;;;;;;;;;5096370;28;20398;-77
2022/08/05 07:55:59;;;;;;;1.67;0.85;;;;;;;;;;5081960;28;20052;-77
2022/08/05 07:58:25;;;;;;;1.50;0.90;;;;;;;;;;5100879;28;20052;-77
2022/08/05 08:00:52;;;;;;;2.80;1.50;;;;;;;;;;5099302;28;20035;-78
2022/08/05 08:03:18;;;;;;;2.13;1.20;;;;;;;;;;5087497;28;20044;-77
2022/08/05 08:05:44;;;;;;;1.35;0.93;;;;;;;;;;5080843;28;20642;-77
2022/08/05 08:08:11;;;;;;;1.10;0.77;;;;;;;;;;5065428;28;20040;-77
2022/08/05 08:10:37;;;;;;;3.33;1.30;;;;;;;;;;5096693;28;20085;-77
2022/08/05 08:13:03;;;;;;;1.88;1.00;;;;;;;;;;5079044;28;20052;-77
2022/08/05 08:15:30;;;;;;;6.10;1.10;;;;;;;;;;5060397;28;20086;-77
2022/08/05 08:17:56;;;;;;;2.03;0.80;;;;;;;;;;5080515;28;20067;-76
2022/08/05 08:20:23;;;;;;;1.92;1.23;;;;;;;;;;5082086;28;20096;-77
2022/08/05 08:22:53;;;;;;;3.47;0.95;;;;;;;;;;5082942;28;20033;-77
2022/08/05 08:25:20;;;;;;;2.35;1.10;;;;;;;;;;5069683;28;20528;-77
2022/08/05 08:27:46;;;;;;;2.17;1.45;;;;;;;;;;5103089;28;20148;-77
2022/08/05 08:30:13;;;;;;;3.20;1.17;;;;;;;;;;5079749;28;20137;-77
2022/08/05 08:32:39;;;;;;;3.42;0.88;;;;;;;;;;5101362;28;20048;-76
2022/08/05 08:35:06;;;;;;;3.65;0.90;;;;;;;;;;5093695;28;20055;-77
2022/08/05 08:37:32;;;;;;;3.50;1.27;;;;;;;;;;5065880;28;20071;-76
2022/08/05 08:39:59;;;;;;;5.10;1.00;;;;;;;;;;5098977;28;20048;-75
2022/08/05 08:42:25;;;;;;;1.30;0.60;;;;;;;;;;5069112;28;20036;-77
2022/08/05 08:44:56;;;;;;;5.53;1.13;;;;;;;;;;5058672;28;20040;-76
2022/08/05 08:47:23;;;;;;;1.52;0.95;;;;;;;;;;5100109;28;20098;-76
2022/08/05 08:49:51;;;;;;;3.22;0.85;;;;;;;;;;5088694;28;20115;-76
2022/08/05 08:52:19;;;;;;;6.03;0.98;;;;;;;;;;5104397;28;20044;-76
2022/08/05 08:54:46;;;;;;;4.30;1.98;;;;;;;;;;5087663;28;20056;-77
2022/08/05 08:57:13;;;;;;;1.98;0.98;;;;;;;;;;5091290;28;20058;-76
2022/08/05 08:59:39;;;;;;;2.28;0.98;;;;;;;;;;5103930;28;20103;-76
2022/08/05 09:02:06;;;;;;;2.38;0.88;;;;;;;;;;5107891;28;20054;-77
2022/08/05 09:04:39;;;;;;;4.10;0.98;;;;;;;;;;5092102;28;20036;-77
2022/08/05 09:07:06;;;;;;;4.90;0.85;;;;;;;;;;5104976;28;20037;-77
2022/08/05 09:09:33;;;;;;;1.00;0.80;;;;;;;;;;5104888;28;20036;-77
2022/08/05 09:11:59;;;;;;;1.45;0.63;;;;;;;;;;5091674;28;20043;-77
2022/08/05 09:14:26;;;;;;;1.33;0.65;;;;;;;;;;5107761;28;20040;-76
2022/08/05 09:16:52;;;;;;;3.42;0.70;;;;;;;;;;5091031;28;20044;-76
2022/08/05 09:19:18;;;;;;;1.83;0.55;;;;;;;;;;5105937;28;20039;-77
2022/08/05 09:21:44;;;;;;;1.92;0.63;;;;;;;;;;5103947;28;20051;-76
2022/08/05 09:24:12;;;;;;;3.15;0.80;;;;;;;;;;5086476;28;20040;-76
2022/08/05 09:26:39;;;;;;;1.75;0.73;;;;;;;;;;5087847;28;20036;-77
2022/08/05 09:29:07;;;;;;;2.00;0.77;;;;;;;;;;5086340;28;20055;-75
2022/08/05 09:31:34;;;;;;;1.83;0.85;;;;;;;;;;5087963;28;20044;-77
2022/08/05 09:34:05;;;;;;;0.47;0.40;;;;;;;;;;5088576;28;20075;-76
2022/08/05 09:36:43;;;;;;;2.63;0.55;;;;;;;;;;5086483;28;20119;-76
2022/08/05 09:39:10;;;;;;;0.93;0.40;;;;;;;;;;5084219;28;20451;-76
2022/08/05 09:41:56;;;;;;;1.63;0.73;;;;;;;;;;5088374;28;20050;-76
2022/08/05 09:44:36;;;;;;;0.73;0.50;;;;;;;;;;5101510;28;20497;-76
2022/08/05 09:47:10;;;;;;;1.23;0.70;;;;;;;;;;5103798;28;20052;-76
2022/08/05 09:49:46;;;;;;;1.15;0.55;;;;;;;;;;5089246;28;20631;-76
2022/08/05 09:52:20;;;;;;;3.03;0.95;;;;;;;;;;5087300;28;20090;-76
2022/08/05 09:54:51;;;;;;;1.15;0.50;;;;;;;;;;5085813;28;20048;-76
2022/08/05 09:57:34;;;;;;;1.08;0.65;;;;;;;;;;5085624;28;20055;-76
2022/08/05 10:00:11;;;;;;;0.75;0.60;;;;;;;;;;5083673;28;20044;-76
2022/08/05 10:02:44;;;;;;;1.33;0.70;;;;;;;;;;5085209;28;20047;-75
2022/08/05 10:05:15;;;;;;;1.25;0.50;;;;;;;;;;5083256;28;20040;-76
2022/08/05 10:07:55;;;;;;;1.08;0.47;;;;;;;;;;5064283;28;20398;-75
2022/08/05 10:10:23;;;;;;;1.98;0.52;;;;;;;;;;5066628;28;20047;-76
2022/08/05 10:12:52;;;;;;;0.93;0.43;;;;;;;;;;5087665;28;20081;-76
2022/08/05 10:15:24;;;;;;;1.65;0.60;;;;;;;;;;5100279;28;20401;-75
2022/08/05 10:18:09;;;;;;;0.60;0.40;;;;;;;;;;5090121;28;20036;-76
2022/08/05 10:20:39;;;;;;;1.05;0.43;;;;;;;;;;5085801;28;20039;-75
2022/08/05 10:23:05;;;;;;;3.00;0.55;;;;;;;;;;5084256;28;20239;-75
2022/08/05 10:25:31;;;;;;;0.88;0.60;;;;;;;;;;5102176;28;20035;-75
2022/08/05 10:27:58;;;;;;;4.38;0.60;;;;;;;;;;5064538;28;20044;-76
2022/08/05 10:30:24;;;;;;;4.97;0.77;;;;;;;;;;5093286;28;20510;-76
2022/08/05 10:32:50;;;;;;;4.43;1.20;;;;;;;;;;5063791;28;20067;-75
2022/08/05 10:35:16;;;;;;;3.88;0.60;;;;;;;;;;5084473;28;20489;-75
2022/08/05 10:37:42;;;;;;;1.02;0.60;;;;;;;;;;5085354;28;20093;-75
2022/08/05 10:40:21;;;;;;;1.13;0.65;;;;;;;;;;5078049;28;20040;-75
2022/08/05 10:42:49;;;;;;;1.95;0.63;;;;;;;;;;5072308;28;20453;-75
2022/08/05 10:45:24;;;;;;;1.63;0.57;;;;;;;;;;5082213;28;20562;-75
2022/08/05 10:47:51;;;;;;;2.60;1.00;;;;;;;;;;5068147;28;20036;-75
2022/08/05 10:50:17;;;;;;;1.02;0.52;;;;;;;;;;5088597;28;20036;-76
2022/08/05 10:52:51;;;;;;;2.25;0.82;;;;;;;;;;5089348;28;20083;-75
2022/08/05 10:55:17;;;;;;;0.90;0.60;;;;;;;;;;5088452;28;20079;-72
2022/08/05 10:57:45;;;;;;;2.00;0.70;;;;;;;;;;5086067;28;20047;-71
2022/08/05 11:00:15;;;;;;;5.88;1.42;;;;;;;;;;5064117;28;20044;-72
2022/08/05 11:03:00;;;;;;;4.78;0.73;;;;;;;;;;5107887;28;20043;-72
2022/08/05 11:05:26;;;;;;;1.05;0.60;;;;;;;;;;5088909;28;20043;-71
2022/08/05 11:07:56;;;;;;;2.75;0.60;;;;;;;;;;5087012;28;20032;-71
2022/08/05 11:10:26;;;;;;;0.98;0.63;;;;;;;;;;5086459;28;20423;-71
2022/08/05 11:12:52;;;;;;;1.75;0.68;;;;;;;;;;5096886;28;20066;-71
2022/08/05 11:15:20;;;;;;;3.25;0.77;;;;;;;;;;5088141;28;20054;-70
2022/08/05 11:17:53;;;;;;;8.02;1.27;;;;;;;;;;5089781;28;20040;-71
2022/08/05 11:20:38;;;;;;;0.88;0.80;;;;;;;;;;5099151;28;20052;-72
2022/08/05 11:23:23;;;;;;;1.85;0.80;;;;;;;;;;5084909;28;20059;-71
2022/08/05 11:26:05;;;;;;;2.10;0.68;;;;;;;;;;5082398;28;20042;-71
2022/08/05 11:28:34;;;;;;;1.35;0.80;;;;;;;;;;5097511;28;20512;-71
2022/08/05 11:31:00;;;;;;;1.08;0.60;;;;;;;;;;5072904;28;20034;-71
2022/08/05 11:33:30;;;;;;;1.35;0.60;;;;;;;;;;5090046;28;20097;-71
2022/08/05 11:36:00;;;;;;;2.35;0.50;;;;;;;;;;5069360;28;20454;-71
2022/08/05 11:38:42;;;;;;;2.35;1.00;;;;;;;;;;5079054;28;20051;-71
2022/08/05 11:41:09;;;;;;;;;;;;;;;;;;5085778;28;20131;-71
2022/08/05 11:43:36;;;;;;;0.43;0.40;;;;;;;;;;5102735;28;20014;-71
2022/08/05 11:46:03;;;;;;;4.13;0.60;;;;;;;;;;5081244;28;20041;-72
2022/08/05 11:48:30;;;;;;;0.77;0.50;;;;;;;;;;5094989;28;20101;-71
2022/08/05 11:50:56;;;;;;;4.60;1.25;;;;;;;;;;5097498;28;20098;-71
2022/08/05 11:53:23;;;;;;;2.50;0.73;;;;;;;;;;5106737;28;20074;-70
2022/08/05 11:55:53;;;;;;;1.00;0.50;;;;;;;;;;5090817;28;20108;-71
2022/08/05 11:58:30;;;;;;;1.40;0.68;;;;;;;;;;5060200;28;20041;-71
2022/08/05 12:01:03;;;;;;;1.98;0.60;;;;;;;;;;5089536;28;20096;-71
2022/08/05 12:03:29;;;;;;;1.80;0.57;;;;;;;;;;5084546;28;20044;-72
2022/08/05 12:06:03;;;;;;;0.65;0.43;;;;;;;;;;5054970;28;20047;-71
2022/08/05 12:08:29;;;;;;;1.65;0.50;;;;;;;;;;5072328;28;20077;-71
2022/08/05 12:10:58;;;;;;;1.17;0.65;;;;;;;;;;5069524;28;20115;-71
2022/08/05 12:13:24;;;;;;;3.00;0.47;;;;;;;;;;5070743;28;20032;-71
2022/08/05 12:15:50;;;;;;;2.47;0.80;;;;;;;;;;5063692;28;20394;-71
2022/08/05 12:18:17;;;;;;;3.90;0.55;;;;;;;;;;5073977;28;20056;-71
2022/08/05 12:20:43;;;;;;;3.17;0.60;;;;;;;;;;5057639;28;20085;-71
2022/08/05 12:23:10;;;;;;;2.35;0.60;;;;;;;;;;5090420;28;20486;-72
2022/08/05 12:25:49;;;;;;;1.05;0.43;;;;;;;;;;5089662;28;20042;-72
2022/08/05 12:28:29;;;;;;;2.13;0.90;;;;;;;;;;5073078;28;20121;-72
2022/08/05 12:30:56;;;;;;;1.08;0.70;;;;;;;;;;5109375;28;20039;-72
2022/08/05 12:33:22;;;;;;;4.32;0.80;;;;;;;;;;5077156;28;20043;-71
2022/08/05 12:35:49;;;;;;;1.25;0.73;;;;;;;;;;5093642;28;20036;-71
2022/08/05 12:38:15;;;;;;;2.80;0.80;;;;;;;;;;5110274;28;20068;-72
2022/08/05 12:40:42;;;;;;;1.13;0.60;;;;;;;;;;5093994;28;20036;-72
2022/08/05 12:43:08;;;;;;;2.58;0.70;;;;;;;;;;5094135;28;20089;-71
2022/08/05 12:45:34;;;;;;;0.80;0.65;;;;;;;;;;5084790;28;20040;-71
2022/08/05 12:48:13;;;;;;;1.23;0.60;;;;;;;;;;5094440;28;20051;-70
2022/08/05 12:50:39;;;;;;;2.10;0.70;;;;;;;;;;5080275;28;20046;-71
2022/08/05 12:53:05;;;;;;;1.52;0.70;;;;;;;;;;5093899;28;20044;-70
2022/08/05 12:55:31;;;;;;;0.85;0.50;;;;;;;;;;5109483;28;20428;-71
2022/08/05 12:57:59;;;;;;;3.00;0.60;;;;;;;;;;5094581;28;20059;-71
2022/08/05 13:00:26;;;;;;;2.40;0.70;;;;;;;;;;5090112;28;20071;-71
2022/08/05 13:02:53;;;;;;;1.30;0.70;;;;;;;;;;5100563;28;20081;-71
2022/08/05 13:05:19;;;;;;;1.45;0.60;;;;;;;;;;5073803;28;20395;-71
2022/08/05 13:07:46;;;;;;;2.17;0.60;;;;;;;;;;5056653;28;20485;-71
2022/08/05 13:10:13;;;;;;;2.20;0.93;;;;;;;;;;5082060;28;20097;-71
2022/08/05 13:12:40;;;;;;;5.95;1.35;;;;;;;;;;5082242;28;20042;-71
2022/08/05 13:15:09;;;;;;;41.72;2.90;;;;;;;;;;5075544;28;20047;-71
2022/08/05 13:17:35;;;;;;;7.70;1.50;;;;;;;;;;5090048;28;20036;-71
2022/08/05 13:20:05;;;;;;;5.05;1.10;;;;;;;;;;5100976;28;20048;-71
2022/08/05 13:22:35;;;;;;;4.38;1.08;;;;;;;;;;5098839;28;20115;-70
2022/08/05 13:25:03;;;;;;;3.60;1.08;;;;;;;;;;5082230;28;20036;-70
2022/08/05 13:27:30;;;;;;;1.75;0.75;;;;;;;;;;5080525;28;20513;-70
2022/08/05 13:29:57;;;;;;;1.00;0.70;;;;;;;;;;5073580;28;20044;-70
2022/08/05 13:32:23;;;;;;;1.83;0.90;;;;;;;;;;5073469;28;20040;-70
2022/08/05 13:34:51;;;;;;;1.02;0.65;;;;;;;;;;5104872;28;20073;-70
2022/08/05 13:37:20;;;;;;;2.15;0.77;;;;;;;;;;5088007;28;20032;-70
2022/08/05 13:39:47;;;;;;;1.42;0.90;;;;;;;;;;5091415;28;20032;-70
2022/08/05 13:42:13;;;;;;;1.02;0.55;;;;;;;;;;5090581;28;20044;-70
2022/08/05 13:44:40;;;;;;;3.08;1.10;;;;;;;;;;5097106;28;20066;-71
2022/08/05 13:47:06;;;;;;;1.42;0.68;;;;;;;;;;5109191;28;20085;-70
2022/08/05 13:49:32;;;;;;;2.47;0.90;;;;;;;;;;5076050;28;20043;-70
2022/08/05 13:52:08;;;;;;;1.10;0.60;;;;;;;;;;5088779;28;20507;-71
2022/08/05 13:54:34;;;;;;;1.38;0.60;;;;;;;;;;5093182;28;20452;-71
2022/08/05 13:57:01;;;;;;;3.42;0.90;;;;;;;;;;5089374;28;20036;-71
2022/08/05 13:59:27;;;;;;;3.58;0.90;;;;;;;;;;5087222;28;20036;-71
2022/08/05 14:01:54;;;;;;;2.78;0.80;;;;;;;;;;5102002;28;20047;-71
2022/08/05 14:07:05;;;;;;;3.03;0.93;;;;;;;;;;5092200;28;20069;-71
2022/08/05 14:09:31;;;;;;;3.70;1.55;;;;;;;;;;5091447;28;20031;-71
2022/08/05 14:11:57;;;;;;;4.70;1.00;;;;;;;;;;5096091;28;20056;-72
2022/08/05 14:14:23;;;;;;;3.65;1.33;;;;;;;;;;5096397;28;20051;-71
2022/08/05 14:16:50;;;;;;;5.00;1.42;;;;;;;;;;5083685;28;20040;-71
2022/08/05 14:19:16;;;;;;;3.88;0.90;;;;;;;;;;5101006;28;20052;-71
2022/08/05 14:21:42;;;;;;;5.35;0.90;;;;;;;;;;5091265;28;20032;-71
2022/08/05 14:24:09;;;;;;;2.30;0.70;;;;;;;;;;5096467;28;20044;-72
2022/08/05 14:26:39;;;;;;;2.03;0.90;;;;;;;;;;5104969;28;20043;-71
2022/08/05 14:29:05;;;;;;;5.18;1.10;;;;;;;;;;5084546;28;20032;-71
2022/08/05 14:31:32;;;;;;;2.45;1.10;;;;;;;;;;5061894;28;20067;-72
2022/08/05 14:33:58;;;;;;;3.13;0.90;;;;;;;;;;5085966;28;20382;-71
2022/08/05 14:36:24;;;;;;;3.58;0.80;;;;;;;;;;5090532;28;20074;-71
2022/08/05 14:38:50;;;;;;;1.33;0.82;;;;;;;;;;5091558;28;20390;-71
2022/08/05 14:41:17;;;;;;;1.05;0.60;;;;;;;;;;5089937;28;20477;-71
2022/08/05 14:43:43;;;;;;;1.02;0.50;;;;;;;;;;5089123;28;20036;-71
2022/08/05 14:46:09;;;;;;;1.70;0.70;;;;;;;;;;5087912;28;20043;-72
2022/08/05 14:48:36;;;;;;;1.42;0.60;;;;;;;;;;5073932;28;20047;-72
2022/08/05 14:51:02;;;;;;;2.00;0.80;;;;;;;;;;5090320;28;20393;-71
2022/08/05 14:53:28;;;;;;;2.28;0.80;;;;;;;;;;5091165;28;20055;-71